createdAt,value
2023-04-20T00:02:34.316Z,16.60
2023-04-20T00:07:41.527Z,16.60
2023-04-20T00:12:44.874Z,16.60
2023-04-20T00:17:48.713Z,16.60
2023-04-20T00:22:53.354Z,16.70
2023-04-20T00:27:56.579Z,16.60
2023-04-20T00:32:59.916Z,16.70
2023-04-20T00:38:04.596Z,16.60
2023-04-20T00:43:11.995Z,16.70
2023-04-20T00:48:15.306Z,16.60
2023-04-20T00:53:20.400Z,16.60
2023-04-20T00:58:25.564Z,16.60
2023-04-20T01:03:29.016Z,16.50
2023-04-20T01:08:33.626Z,16.50
2023-04-20T01:13:40.550Z,16.50
2023-04-20T01:18:46.560Z,16.50
2023-04-20T01:23:51.409Z,16.40
2023-04-20T01:28:54.656Z,16.40
2023-04-20T01:33:57.897Z,16.40
2023-04-20T01:39:02.646Z,16.40
2023-04-20T01:44:06.034Z,16.40
2023-04-20T01:49:10.071Z,16.30
2023-04-20T01:54:15.045Z,16.30
2023-04-20T01:59:18.467Z,16.20
2023-04-20T02:04:22.076Z,16.20
2023-04-20T02:09:27.137Z,16.20
2023-04-20T02:14:30.486Z,16.20
2023-04-20T02:19:34.776Z,16.10
2023-04-20T02:24:39.462Z,16.10
2023-04-20T02:29:42.735Z,16.10
2023-04-20T02:34:46.298Z,16.00
2023-04-20T02:39:51.229Z,16.00
2023-04-20T02:44:54.486Z,16.00
2023-04-20T02:49:58.018Z,16.00
2023-04-20T02:55:02.725Z,16.00
2023-04-20T03:00:08.863Z,15.90
2023-04-20T03:05:28.723Z,15.90
2023-04-20T03:10:33.627Z,15.90
2023-04-20T03:15:48.565Z,15.90
2023-04-20T03:21:08.291Z,15.90
2023-04-20T03:26:13.598Z,15.80
2023-04-20T03:31:25.678Z,15.80
2023-04-20T03:36:32.045Z,15.80
2023-04-20T03:41:37.196Z,15.80
2023-04-20T03:46:41.138Z,15.70
2023-04-20T03:51:44.417Z,15.70
2023-04-20T03:56:49.767Z,15.70
2023-04-20T04:01:54.257Z,15.60
2023-04-20T04:06:57.741Z,15.70
2023-04-20T04:12:04.687Z,15.60
2023-04-20T04:17:08.873Z,15.60
2023-04-20T04:22:16.625Z,15.60
2023-04-20T04:27:39.913Z,15.60
2023-04-20T04:32:44.725Z,15.50
2023-04-20T04:37:48.950Z,15.50
2023-04-20T04:42:55.691Z,15.50
2023-04-20T04:47:59.970Z,15.50
2023-04-20T04:53:03.290Z,15.50
2023-04-20T04:58:08.138Z,15.50
2023-04-20T05:03:11.885Z,15.50
2023-04-20T05:08:15.207Z,15.50
2023-04-20T05:13:19.718Z,15.50
2023-04-20T05:18:24.204Z,15.50
2023-04-20T05:23:27.485Z,15.50
2023-04-20T05:28:32.092Z,15.50
2023-04-20T05:33:35.388Z,15.50
2023-04-20T05:38:38.857Z,15.50
2023-04-20T05:43:43.493Z,15.50
2023-04-20T05:48:46.817Z,15.50
2023-04-20T05:53:50.041Z,15.50
2023-04-20T05:58:55.088Z,15.60
2023-04-20T06:03:58.567Z,15.60
2023-04-20T06:09:02.095Z,15.60
2023-04-20T06:14:06.699Z,15.60
2023-04-20T06:19:09.944Z,15.60
2023-04-20T06:24:13.202Z,15.70
2023-04-20T06:29:17.943Z,15.70
2023-04-20T06:34:21.209Z,15.70
2023-04-20T06:39:25.224Z,15.80
2023-04-20T06:44:29.815Z,15.90
2023-04-20T06:49:33.076Z,16.10
2023-04-20T06:54:36.364Z,16.40
2023-04-20T06:59:41.245Z,16.70
2023-04-20T07:04:44.872Z,17.10
2023-04-20T07:09:48.086Z,17.40
2023-04-20T07:14:52.946Z,17.60
2023-04-20T07:19:56.511Z,17.70
2023-04-20T07:24:59.819Z,17.70
2023-04-20T07:30:06.427Z,17.70
2023-04-20T07:35:10.586Z,17.70
2023-04-20T07:40:14.108Z,17.60
2023-04-20T07:45:18.682Z,17.60
2023-04-20T07:50:22.435Z,17.50
2023-04-20T07:55:25.871Z,17.40
2023-04-20T08:00:30.814Z,17.40
2023-04-20T08:05:34.251Z,17.30
2023-04-20T08:10:38.159Z,17.40
2023-04-20T08:15:43.213Z,17.40
2023-04-20T08:20:47.145Z,17.40
2023-04-20T08:25:50.597Z,17.50
2023-04-20T08:30:55.584Z,17.50
2023-04-20T08:36:00.989Z,17.50
2023-04-20T08:41:04.369Z,17.60
2023-04-20T08:46:09.949Z,17.70
2023-04-20T08:51:16.065Z,17.70
2023-04-20T08:56:20.319Z,17.80
2023-04-20T09:01:35.603Z,17.90
2023-04-20T09:06:45.136Z,18.00
2023-04-20T09:11:48.784Z,18.10
2023-04-20T09:16:54.406Z,18.30
2023-04-20T09:21:59.146Z,18.50
2023-04-20T09:27:03.173Z,18.70
2023-04-20T09:32:07.975Z,18.90
2023-04-20T09:37:11.748Z,19.20
2023-04-20T09:42:16.593Z,19.70
2023-04-20T09:47:26.049Z,20.30
2023-04-20T09:52:29.405Z,21.00
2023-04-20T09:57:33.701Z,21.70
2023-04-20T10:02:38.905Z,22.40
2023-04-20T10:07:42.257Z,23.00
2023-04-20T10:12:49.380Z,23.60
2023-04-20T10:17:55.125Z,24.10
2023-04-20T10:23:09.737Z,24.60
2023-04-20T10:28:13.196Z,24.90
2023-04-20T10:33:18.275Z,25.30
2023-04-20T10:38:30.680Z,25.60
2023-04-20T10:43:35.358Z,25.80
2023-04-20T10:48:40.694Z,26.10
2023-04-20T10:53:43.870Z,26.30
2023-04-20T10:58:47.254Z,26.50
2023-04-20T11:03:54.869Z,26.60
2023-04-20T11:08:58.269Z,26.70
2023-04-20T11:14:08.782Z,26.70
2023-04-20T11:19:13.446Z,26.60
2023-04-20T11:24:20.901Z,26.60
2023-04-20T11:29:33.216Z,26.50
2023-04-20T11:34:39.965Z,26.40
2023-04-20T11:39:44.264Z,26.40
2023-04-20T11:44:47.471Z,26.40
2023-04-20T11:49:52.278Z,26.40
2023-04-20T11:54:55.557Z,26.30
2023-04-20T11:59:58.749Z,26.40
2023-04-20T12:05:03.767Z,26.30
2023-04-20T12:10:08.588Z,26.40
2023-04-20T12:15:12.913Z,26.40
2023-04-20T12:20:17.509Z,26.40
2023-04-20T12:25:21.011Z,26.40
2023-04-20T12:30:24.496Z,26.40
2023-04-20T12:35:29.171Z,26.30
2023-04-20T12:40:32.654Z,26.30
2023-04-20T12:45:36.231Z,26.10
2023-04-20T12:50:41.262Z,26.10
2023-04-20T12:55:44.618Z,26.10
2023-04-20T13:00:47.946Z,26.10
2023-04-20T13:05:52.554Z,26.20
2023-04-20T13:10:55.802Z,26.20
2023-04-20T13:15:59.163Z,26.10
2023-04-20T13:21:04.082Z,26.10
2023-04-20T13:26:08.714Z,26.10
2023-04-20T13:31:11.980Z,26.10
2023-04-20T13:36:16.705Z,26.20
2023-04-20T13:41:20.339Z,26.40
2023-04-20T13:46:23.648Z,26.60
2023-04-20T13:51:28.867Z,26.80
2023-04-20T13:56:32.026Z,26.90
2023-04-20T14:01:35.444Z,27.00
2023-04-20T14:06:40.266Z,27.10
2023-04-20T14:11:43.799Z,27.20
2023-04-20T14:16:47.994Z,27.30
2023-04-20T14:21:52.697Z,27.30
2023-04-20T14:26:56.820Z,27.20
2023-04-20T14:32:00.201Z,27.10
2023-04-20T14:37:04.918Z,26.90
2023-04-20T14:42:08.725Z,26.70
2023-04-20T14:47:11.957Z,26.60
2023-04-20T14:52:16.596Z,26.30
2023-04-20T14:57:21.850Z,26.20
2023-04-20T15:02:25.585Z,26.00
2023-04-20T15:07:30.401Z,25.80
2023-04-20T15:12:33.552Z,25.60
2023-04-20T15:17:36.896Z,25.40
2023-04-20T15:22:41.524Z,25.30
2023-04-20T15:27:44.907Z,25.10
2023-04-20T15:32:48.168Z,25.00
2023-04-20T15:37:52.914Z,24.80
2023-04-20T15:42:56.156Z,24.70
2023-04-20T15:48:00.987Z,24.60
2023-04-20T15:53:07.509Z,24.50
2023-04-20T15:58:11.075Z,24.40
2023-04-20T16:03:14.616Z,24.40
2023-04-20T16:08:21.187Z,24.30
2023-04-20T16:13:26.146Z,24.20
2023-04-20T16:18:30.023Z,24.20
2023-04-20T16:23:34.789Z,24.10
2023-04-20T16:28:38.228Z,24.00
2023-04-20T16:33:41.656Z,23.90
2023-04-20T16:38:46.732Z,23.80
2023-04-20T16:43:52.062Z,23.80
2023-04-20T16:48:55.436Z,23.70
2023-04-20T16:54:01.608Z,23.70
2023-04-20T16:59:05.701Z,23.60
2023-04-20T17:04:09.383Z,23.50
2023-04-20T17:09:14.582Z,23.50
2023-04-20T17:14:18.097Z,23.40
2023-04-20T17:19:21.492Z,23.40
2023-04-20T17:24:26.103Z,23.40
2023-04-20T17:29:35.010Z,23.30
2023-04-20T17:34:40.048Z,23.30
2023-04-20T17:39:45.613Z,23.20
2023-04-20T17:44:49.585Z,23.20
2023-04-20T17:49:53.028Z,23.10
2023-04-20T17:55:02.413Z,23.10
2023-04-20T18:00:09.217Z,23.10
2023-04-20T18:05:16.300Z,23.00
2023-04-20T18:10:21.396Z,23.00
2023-04-20T18:15:25.694Z,22.90
2023-04-20T18:20:31.140Z,22.80
2023-04-20T18:25:37.944Z,22.80
2023-04-20T18:30:44.943Z,22.70
2023-04-20T18:35:48.991Z,22.60
2023-04-20T18:40:54.869Z,22.60
2023-04-20T18:45:59.072Z,22.50
2023-04-20T18:51:03.928Z,22.40
2023-04-20T18:56:10.293Z,22.40
2023-04-20T19:01:14.901Z,22.30
2023-04-20T19:06:20.156Z,22.20
2023-04-20T19:11:26.678Z,22.10
2023-04-20T19:16:32.637Z,22.00
2023-04-20T19:21:39.640Z,21.90
2023-04-20T19:26:46.282Z,21.90
2023-04-20T19:31:51.991Z,21.80
2023-04-20T19:36:56.484Z,21.70
2023-04-20T19:42:01.984Z,21.60
2023-04-20T19:47:06.722Z,21.60
2023-04-20T19:52:10.616Z,21.50
2023-04-20T19:57:16.580Z,21.50
2023-04-20T20:02:21.069Z,21.40
2023-04-20T20:07:26.824Z,21.30
2023-04-20T20:12:32.032Z,21.20
2023-04-20T20:17:37.891Z,21.20
2023-04-20T20:22:41.581Z,21.10
2023-04-20T20:27:47.227Z,21.00
2023-04-20T20:32:51.276Z,20.90
2023-04-20T20:37:55.972Z,20.90
2023-04-20T20:43:00.877Z,20.90
2023-04-20T20:48:04.257Z,20.80
2023-04-20T20:53:07.651Z,20.70
2023-04-20T20:58:12.280Z,20.70
2023-04-20T21:03:15.743Z,20.60
2023-04-20T21:08:19.116Z,20.60
2023-04-20T21:13:23.884Z,20.50
2023-04-20T21:18:28.499Z,20.50
2023-04-20T21:23:31.818Z,20.40
2023-04-20T21:28:36.429Z,20.40
2023-04-20T21:33:39.867Z,20.30
2023-04-20T21:38:43.121Z,20.30
2023-04-20T21:43:47.803Z,20.20
2023-04-20T21:48:52.183Z,20.10
2023-04-20T21:53:55.752Z,20.00
2023-04-20T21:59:00.323Z,20.00
2023-04-20T22:04:04.648Z,19.90
2023-04-20T22:09:08.121Z,19.90
2023-04-20T22:14:12.771Z,19.80
2023-04-20T22:19:16.362Z,19.80
2023-04-20T22:24:19.793Z,19.70
2023-04-20T22:29:24.506Z,19.60
2023-04-20T22:34:27.755Z,19.60
2023-04-20T22:39:31.000Z,19.50
2023-04-20T22:44:35.560Z,19.50
2023-04-20T22:49:38.761Z,19.40
2023-04-20T22:54:42.021Z,19.40
2023-04-20T22:59:46.707Z,19.30
2023-04-20T23:04:49.987Z,19.20
2023-04-20T23:09:53.852Z,19.20
2023-04-20T23:15:00.673Z,19.10
2023-04-20T23:20:04.512Z,19.10
2023-04-20T23:25:09.895Z,19.00
2023-04-20T23:30:15.427Z,19.00
2023-04-20T23:35:19.814Z,18.90
2023-04-20T23:40:23.220Z,18.90
2023-04-20T23:45:28.573Z,18.80
2023-04-20T23:50:32.201Z,18.80
2023-04-20T23:55:35.601Z,18.70
